Time;durP1;ratioP1;P1;durP2;ratioP2;P2;SDS_P1;SDS_P2;PMS_P1;PMS_P2;Temp;Humidity;BMP_temperature;BMP_pressure;BME280_temperature;BME280_humidity;BME280_pressure;Samples;Min_cycle;Max_cycle;Signal;HPM_P1;HPM_P2
2023/11/12 00:00:49;;;;;;;10.77;4.85;;;;;;;8.05;100.00;100454.81;4922591;29;20076;-67
2023/11/12 00:03:37;;;;;;;10.13;5.53;;;;;;;8.06;100.00;100445.63;4921961;29;20051;-67
2023/11/12 00:06:25;;;;;;;16.23;5.47;;;;;;;8.05;100.00;100452.09;4921415;29;20063;-67
2023/11/12 00:09:14;;;;;;;10.98;5.53;;;;;;;8.05;100.00;100454.00;4917689;29;20119;-66
2023/11/12 00:12:02;;;;;;;11.57;5.95;;;;;;;8.03;100.00;100446.13;4939889;29;20056;-67
2023/11/12 00:14:50;;;;;;;10.38;6.18;;;;;;;8.01;100.00;100442.88;4903687;29;20145;-67
2023/11/12 00:17:42;;;;;;;11.27;6.72;;;;;;;8.00;100.00;100446.63;4920024;29;20084;-67
2023/11/12 00:20:30;;;;;;;16.35;6.60;;;;;;;7.99;100.00;100447.72;4925709;29;20058;-66
2023/11/12 00:23:18;;;;;;;13.10;7.25;;;;;;;7.99;100.00;100455.88;4948901;28;20195;-67
2023/11/12 00:26:06;;;;;;;13.50;7.70;;;;;;;7.97;100.00;100452.59;4925406;29;20048;-66
2023/11/12 00:28:55;;;;;;;16.23;8.80;;;;;;;7.96;100.00;100453.69;4950508;29;20047;-66
2023/11/12 00:31:43;;;;;;;16.27;10.00;;;;;;;7.94;100.00;100442.28;4938354;29;20175;-66
2023/11/12 00:34:32;;;;;;;18.40;10.25;;;;;;;7.94;100.00;100446.84;4911257;29;20512;-66
2023/11/12 00:37:20;;;;;;;19.85;11.02;;;;;;;7.94;100.00;100436.84;4939159;29;20052;-67
2023/11/12 00:40:08;;;;;;;22.15;12.02;;;;;;;7.95;100.00;100433.03;4926858;28;20043;-66
2023/11/12 00:42:58;;;;;;;22.67;12.73;;;;;;;7.94;100.00;100431.41;4912483;29;20127;-66
2023/11/12 00:45:46;;;;;;;22.20;12.95;;;;;;;7.93;100.00;100432.47;4939652;29;20055;-67
2023/11/12 00:48:34;;;;;;;23.05;12.70;;;;;;;7.92;100.00;100425.44;4944287;29;20052;-66
2023/11/12 00:51:22;;;;;;;20.35;11.60;;;;;;;7.92;100.00;100433.56;4942515;29;20056;-67
2023/11/12 00:54:11;;;;;;;21.33;12.00;;;;;;;7.90;100.00;100427.59;4943912;29;20071;-67
2023/11/12 00:56:59;;;;;;;21.65;11.70;;;;;;;7.89;100.00;100423.25;4940501;28;20488;-67
2023/11/12 00:59:47;;;;;;;21.70;11.88;;;;;;;7.89;100.00;100421.34;4913579;29;20051;-67
2023/11/12 01:02:35;;;;;;;24.33;13.45;;;;;;;7.89;100.00;100415.13;4924300;29;20277;-68
2023/11/12 01:05:23;;;;;;;23.88;12.82;;;;;;;7.88;100.00;100422.41;4925563;29;20048;-67
2023/11/12 01:08:11;;;;;;;23.08;13.15;;;;;;;7.89;100.00;100423.25;4913608;28;20052;-67
2023/11/12 01:10:59;;;;;;;20.75;13.07;;;;;;;7.89;100.00;100423.25;4938894;29;20408;-67
2023/11/12 01:13:47;;;;;;;24.83;14.20;;;;;;;7.88;100.00;100421.59;4928962;29;20059;-68
2023/11/12 01:16:37;;;;;;;22.30;14.10;;;;;;;7.90;100.00;100427.59;4937517;29;20044;-67
2023/11/12 01:19:25;;;;;;;26.88;14.48;;;;;;;7.89;100.00;100429.47;4939447;29;20051;-67
2023/11/12 01:22:13;;;;;;;27.20;15.70;;;;;;;7.88;100.00;100433.25;4956223;29;20048;-68
2023/11/12 01:25:02;;;;;;;28.38;15.90;;;;;;;7.88;100.00;100432.44;4938720;29;20249;-67
2023/11/12 01:27:50;;;;;;;27.45;15.25;;;;;;;7.88;100.00;100427.03;4936001;29;20047;-67
2023/11/12 01:30:39;;;;;;;28.60;15.65;;;;;;;7.87;100.00;100423.50;4938926;29;20040;-67
2023/11/12 01:33:28;;;;;;;32.72;17.88;;;;;;;7.87;100.00;100419.97;4949447;29;20048;-66
2023/11/12 01:36:16;;;;;;;29.38;17.77;;;;;;;7.85;100.00;100422.13;4923524;29;20064;-67
2023/11/12 01:39:07;;;;;;;30.00;16.85;;;;;;;7.84;100.00;100413.19;4938335;29;20081;-67
2023/11/12 01:41:56;;;;;;;29.17;15.77;;;;;;;7.83;100.00;100411.53;4910856;29;20044;-67
2023/11/12 01:44:44;;;;;;;26.42;15.63;;;;;;;7.85;100.00;100416.69;4922766;29;20052;-67
2023/11/12 01:47:32;;;;;;;25.60;15.45;;;;;;;7.84;100.00;100415.03;4925804;28;20052;-67
2023/11/12 01:50:21;;;;;;;28.05;15.10;;;;;;;7.85;100.00;100411.28;4935777;29;20044;-67
2023/11/12 01:53:11;;;;;;;23.73;13.82;;;;;;;7.85;100.00;100400.44;4938066;29;20092;-66
2023/11/12 01:55:59;;;;;;;28.17;15.10;;;;;;;7.84;100.00;100398.78;4950417;28;20091;-67
2023/11/12 01:58:50;;;;;;;24.58;14.73;;;;;;;7.85;100.00;100405.84;4924090;29;20048;-67
2023/11/12 02:01:39;;;;;;;22.20;13.15;;;;;;;7.85;100.00;100405.84;4937149;29;20044;-66
2023/11/12 02:04:27;;;;;;;21.73;11.63;;;;;;;7.86;100.00;100402.03;4935929;29;20063;-66
2023/11/12 02:07:15;;;;;;;24.27;12.63;;;;;;;7.84;100.00;100398.78;4936903;28;20051;-67
2023/11/12 02:10:09;;;;;;;22.52;12.73;;;;;;;7.83;100.00;100408.81;4923521;29;20051;-67
2023/11/12 02:12:57;;;;;;;19.48;11.00;;;;;;;7.82;100.00;100406.38;4935677;29;20567;-67
2023/11/12 02:15:47;;;;;;;17.05;10.50;;;;;;;7.81;100.00;100407.44;4923316;29;20048;-67
2023/11/12 02:18:35;;;;;;;21.13;10.60;;;;;;;7.82;100.00;100414.50;4937894;29;20052;-66
2023/11/12 02:21:31;;;;;;;17.70;9.40;;;;;;;7.82;100.00;100417.22;4923111;29;20183;-66
2023/11/12 02:24:23;;;;;;;16.38;9.57;;;;;;;7.81;100.00;100413.66;4922225;29;20497;-66
2023/11/12 02:27:12;;;;;;;16.77;9.50;;;;;;;7.81;100.00;100413.66;4924509;29;20058;-66
2023/11/12 02:30:00;;;;;;;17.70;8.80;;;;;;;7.81;100.00;100412.88;4937531;29;20412;-66
2023/11/12 02:32:51;;;;;;;16.48;8.70;;;;;;;7.81;100.00;100410.16;4918385;28;20044;-66
2023/11/12 02:35:42;;;;;;;13.10;7.88;;;;;;;7.80;100.00;100412.06;4910161;29;20040;-66
2023/11/12 02:38:31;;;;;;;12.30;7.97;;;;;;;7.79;100.00;100418.56;4924487;28;20520;-68
2023/11/12 02:41:20;;;;;;;13.05;7.07;;;;;;;7.80;100.00;100416.66;4949504;29;20600;-67
2023/11/12 02:44:08;;;;;;;14.18;7.40;;;;;;;7.78;100.00;100418.81;4923135;28;20058;-67
2023/11/12 02:46:56;;;;;;;12.38;7.10;;;;;;;7.77;100.00;100418.00;4937802;29;20512;-67
2023/11/12 02:50:35;;;;;;;13.13;7.63;;;;;;;7.76;100.00;100415.53;4936958;29;20040;-68
2023/11/12 02:53:24;;;;;;;14.55;7.05;;;;;;;7.72;100.00;100404.41;4921814;29;20415;-67
2023/11/12 02:56:14;;;;;;;12.55;7.28;;;;;;;7.72;100.00;100417.13;4910372;29;20088;-66
2023/11/12 02:59:03;;;;;;;13.63;7.82;;;;;;;7.72;100.00;100417.13;4924558;28;20456;-68
2023/11/12 03:01:51;;;;;;;15.38;9.18;;;;;;;7.71;100.00;100415.50;4908630;29;20512;-68
2023/11/12 03:04:39;;;;;;;15.27;9.07;;;;;;;7.70;100.00;100403.84;4916747;28;20047;-67
2023/11/12 03:07:27;;;;;;;17.10;9.98;;;;;;;7.69;100.00;100407.63;4934230;29;20496;-67
2023/11/12 03:10:16;;;;;;;15.05;9.32;;;;;;;7.69;100.00;100411.13;4935743;29;20046;-67
2023/11/12 03:13:04;;;;;;;14.77;9.77;;;;;;;7.68;100.00;100406.81;4923123;29;20047;-67
2023/11/12 03:15:52;;;;;;;17.67;10.20;;;;;;;7.68;100.00;100406.81;4934753;29;20047;-67
2023/11/12 03:18:40;;;;;;;17.60;9.73;;;;;;;7.67;100.00;100415.19;4937646;29;20043;-66
2023/11/12 03:21:28;;;;;;;19.23;10.57;;;;;;;7.67;100.00;100410.59;4921643;29;20050;-66
2023/11/12 03:24:16;;;;;;;16.10;10.82;;;;;;;7.67;100.00;100415.19;4935983;29;20079;-67
2023/11/12 03:27:08;;;;;;;15.43;10.02;;;;;;;7.67;100.00;100416.03;4933968;28;20051;-67
2023/11/12 03:29:56;;;;;;;19.17;10.50;;;;;;;7.66;100.00;100414.38;4930592;29;20501;-67
2023/11/12 03:32:44;;;;;;;16.75;10.32;;;;;;;7.63;100.00;100406.75;4934461;29;20087;-67
2023/11/12 03:35:32;;;;;;;16.92;9.52;;;;;;;7.62;100.00;100402.41;4922269;29;20153;-66
2023/11/12 03:38:20;;;;;;;15.68;10.07;;;;;;;7.62;100.00;100404.31;4922817;29;20048;-67
2023/11/12 03:41:12;;;;;;;15.05;9.10;;;;;;;7.63;100.00;100408.66;4934055;29;20195;-67
2023/11/12 03:44:00;;;;;;;16.05;9.85;;;;;;;7.63;100.00;100401.34;4923632;29;20043;-66
2023/11/12 03:46:48;;;;;;;15.30;9.35;;;;;;;7.61;100.00;100399.97;4922822;29;20044;-66
2023/11/12 03:49:39;;;;;;;14.43;9.30;;;;;;;7.61;100.00;100403.50;4943830;28;20056;-65
2023/11/12 03:52:27;;;;;;;17.38;9.48;;;;;;;7.60;100.00;100404.59;4922329;29;20084;-63
2023/11/12 03:55:15;;;;;;;14.32;9.30;;;;;;;7.59;100.00;100408.34;4934986;29;20523;-66
2023/11/12 03:58:04;;;;;;;15.70;9.32;;;;;;;7.58;100.00;100406.72;4924894;29;20087;-67
2023/11/12 04:00:51;;;;;;;17.35;9.95;;;;;;;7.53;100.00;100401.25;4950606;29;20048;-64
2023/11/12 04:03:40;;;;;;;17.52;10.10;;;;;;;7.51;100.00;100392.56;4951978;28;20052;-66
2023/11/12 04:06:28;;;;;;;17.05;9.80;;;;;;;7.49;100.00;100400.13;4940211;29;20504;-67
2023/11/12 04:09:16;;;;;;;16.02;10.30;;;;;;;7.48;100.00;100390.38;4938169;29;20055;-65
2023/11/12 04:12:04;;;;;;;18.65;10.38;;;;;;;7.50;100.00;100393.63;4965924;29;20055;-65
2023/11/12 04:14:52;;;;;;;16.88;10.60;;;;;;;7.50;100.00;100387.41;4949120;29;20048;-69
2023/11/12 04:17:40;;;;;;;15.05;9.63;;;;;;;7.48;100.00;100390.38;4921079;29;20055;-67
2023/11/12 04:20:30;;;;;;;16.98;10.43;;;;;;;7.48;100.00;100393.09;4955856;28;20133;-66
2023/11/12 04:23:19;;;;;;;16.05;10.00;;;;;;;7.46;100.00;100387.09;4949909;29;20099;-67
2023/11/12 04:26:07;;;;;;;15.32;9.77;;;;;;;7.44;100.00;100386.53;4937977;29;20062;-68
2023/11/12 04:28:55;;;;;;;19.67;10.55;;;;;;;7.42;100.00;100381.38;4943088;29;20055;-67
2023/11/12 04:31:43;;;;;;;16.38;10.43;;;;;;;7.41;100.00;100390.59;4936275;29;20047;-66
2023/11/12 04:34:31;;;;;;;18.17;11.00;;;;;;;7.42;100.00;100396.81;4936362;29;20052;-67
2023/11/12 04:37:19;;;;;;;17.38;11.02;;;;;;;7.41;100.00;100398.72;4935540;29;20048;-68
2023/11/12 04:40:13;;;;;;;17.52;10.95;;;;;;;7.41;100.00;100389.78;4931813;29;20362;-67
2023/11/12 04:43:01;;;;;;;20.08;11.45;;;;;;;7.40;100.00;100405.19;4909414;29;20051;-68
2023/11/12 04:45:49;;;;;;;19.65;12.43;;;;;;;7.41;100.00;100401.44;4897434;29;20126;-66
2023/11/12 04:48:38;;;;;;;20.08;11.18;;;;;;;7.42;100.00;100402.25;4936718;29;20071;-67
2023/11/12 04:51:26;;;;;;;18.80;12.05;;;;;;;7.41;100.00;100401.44;4903643;29;20420;-67
2023/11/12 04:54:14;;;;;;;16.38;10.93;;;;;;;7.40;100.00;100407.09;4917081;29;20060;-67
2023/11/12 04:57:03;;;;;;;21.08;12.25;;;;;;;7.38;100.00;100406.53;4917626;29;20457;-66
2023/11/12 04:59:51;;;;;;;18.05;11.10;;;;;;;7.38;100.00;100414.66;4931888;29;20048;-68
2023/11/12 05:02:40;;;;;;;16.63;10.63;;;;;;;7.36;100.00;100414.09;4919647;29;20055;-68
2023/11/12 05:05:28;;;;;;;17.45;11.27;;;;;;;7.35;100.00;100407.06;4938226;29;20512;-68
2023/11/12 05:08:17;;;;;;;16.73;10.43;;;;;;;7.33;100.00;100411.91;4922160;29;20052;-69
2023/11/12 05:11:05;;;;;;;17.88;10.88;;;;;;;7.33;100.00;100420.03;4930752;29;20191;-68
2023/11/12 05:13:53;;;;;;;17.27;10.38;;;;;;;7.32;100.00;100402.97;4937629;29;20527;-69
2023/11/12 05:16:44;;;;;;;20.98;10.85;;;;;;;7.32;100.00;100410.28;4938325;29;20425;-66
2023/11/12 05:19:32;;;;;;;19.08;10.95;;;;;;;7.33;100.00;100411.91;4912072;29;20573;-67
2023/11/12 05:22:20;;;;;;;19.25;10.95;;;;;;;7.33;100.00;100415.44;4938215;29;20048;-66
2023/11/12 05:25:12;;;;;;;17.92;11.60;;;;;;;7.34;100.00;100416.28;4938503;29;20055;-67
2023/11/12 05:28:00;;;;;;;20.65;10.88;;;;;;;7.33;100.00;100414.63;4937325;29;20107;-67
2023/11/12 05:30:48;;;;;;;19.55;11.18;;;;;;;7.32;100.00;100413.00;4937754;29;20048;-67
2023/11/12 05:33:36;;;;;;;17.40;10.63;;;;;;;7.32;100.00;100413.00;4938439;29;20054;-67
2023/11/12 05:36:24;;;;;;;15.93;10.52;;;;;;;7.32;100.00;100413.81;4937707;29;20519;-68
2023/11/12 05:39:13;;;;;;;16.63;10.93;;;;;;;7.32;100.00;100415.69;4949086;29;20043;-67
2023/11/12 05:42:02;;;;;;;16.88;10.63;;;;;;;7.28;100.00;100420.81;4922878;29;20432;-67
2023/11/12 05:44:50;;;;;;;17.20;10.57;;;;;;;7.28;100.00;100420.00;4935939;29;20106;-68
2023/11/12 05:47:38;;;;;;;20.15;10.95;;;;;;;7.26;100.00;100425.66;4923434;29;20044;-66
2023/11/12 05:50:26;;;;;;;16.10;10.07;;;;;;;7.21;100.00;100422.91;4937246;29;20051;-64
2023/11/12 05:53:14;;;;;;;18.00;10.13;;;;;;;7.18;100.00;100426.94;4938349;29;20054;-66
2023/11/12 05:56:03;;;;;;;16.70;9.98;;;;;;;7.16;100.00;100430.97;4918986;29;20056;-65
2023/11/12 05:58:51;;;;;;;18.42;11.43;;;;;;;7.15;100.00;100435.59;4918021;29;20088;-66
2023/11/12 06:01:39;;;;;;;18.13;10.50;;;;;;;7.06;100.00;100434.41;4906681;29;20425;-66
2023/11/12 06:04:27;;;;;;;17.25;10.52;;;;;;;7.03;100.00;100438.44;4893840;29;20052;-67
2023/11/12 06:07:15;;;;;;;16.77;10.50;;;;;;;7.04;100.00;100436.53;4891516;29;20192;-66
2023/11/12 06:10:03;;;;;;;18.58;10.38;;;;;;;7.03;100.00;100432.22;4931502;29;20048;-66
2023/11/12 06:12:51;;;;;;;18.52;10.73;;;;;;;7.04;100.00;100437.34;4918920;29;20048;-66
2023/11/12 06:15:41;;;;;;;16.23;9.50;;;;;;;7.05;100.00;100440.91;4904167;29;20405;-67
2023/11/12 06:18:29;;;;;;;18.20;11.57;;;;;;;7.03;100.00;100443.03;4887653;29;20044;-67
2023/11/12 06:21:17;;;;;;;20.50;10.90;;;;;;;7.03;100.00;100440.34;4918083;29;20044;-67
2023/11/12 06:24:06;;;;;;;16.00;10.10;;;;;;;7.06;100.00;100452.53;4904302;29;20081;-68
2023/11/12 06:26:54;;;;;;;16.17;10.18;;;;;;;7.02;100.00;100441.38;4904719;29;20432;-66
2023/11/12 06:29:43;;;;;;;15.88;10.48;;;;;;;6.94;100.00;100439.94;4905246;29;20135;-66
2023/11/12 06:32:31;;;;;;;17.45;11.43;;;;;;;6.88;100.00;100440.97;4913511;29;20048;-66
2023/11/12 06:35:19;;;;;;;14.65;9.57;;;;;;;6.89;100.00;100439.91;4905385;29;20091;-66
2023/11/12 06:38:07;;;;;;;17.00;11.00;;;;;;;6.86;100.00;100453.94;4919091;29;20067;-66
2023/11/12 06:40:55;;;;;;;18.00;11.35;;;;;;;6.85;100.00;100448.78;4919683;29;20059;-67
2023/11/12 06:43:43;;;;;;;15.32;10.93;;;;;;;6.87;100.00;100461.00;4932462;29;20412;-66
2023/11/12 06:46:31;;;;;;;15.15;10.18;;;;;;;6.82;100.00;100461.75;4918791;29;20465;-66
2023/11/12 06:49:19;;;;;;;15.13;10.38;;;;;;;6.79;100.00;100459.53;4917705;29;20056;-66
2023/11/12 06:52:07;;;;;;;13.25;9.40;;;;;;;6.80;100.00;100463.06;4918623;29;20054;-67
2023/11/12 06:54:55;;;;;;;15.60;10.27;;;;;;;6.80;100.00;100466.59;4927644;29;20464;-65
2023/11/12 06:57:44;;;;;;;12.45;9.27;;;;;;;6.81;100.00;100468.25;4928560;29;20111;-66
2023/11/12 07:00:33;;;;;;;13.60;9.38;;;;;;;6.80;100.00;100463.88;4936425;29;20545;-65
2023/11/12 07:03:21;;;;;;;16.00;10.70;;;;;;;6.76;100.00;100460.06;4937296;29;20092;-66
2023/11/12 07:06:09;;;;;;;13.95;9.90;;;;;;;6.77;100.00;100466.28;4924624;29;20079;-66
2023/11/12 07:08:57;;;;;;;13.80;9.75;;;;;;;6.79;100.00;100470.38;4936894;29;20048;-66
2023/11/12 07:11:45;;;;;;;12.10;9.13;;;;;;;6.79;100.00;100472.28;4936572;29;20111;-66
2023/11/12 07:14:33;;;;;;;12.30;9.38;;;;;;;6.80;100.00;100472.00;4936122;29;20051;-65
2023/11/12 07:17:21;;;;;;;14.68;10.10;;;;;;;6.81;100.00;100470.94;4923569;29;20568;-66
2023/11/12 07:20:11;;;;;;;13.32;10.10;;;;;;;6.81;100.00;100472.84;4939500;29;20050;-65
2023/11/12 07:23:02;;;;;;;13.77;10.18;;;;;;;6.83;100.00;100476.94;4946706;29;20060;-66
2023/11/12 07:25:50;;;;;;;12.55;8.93;;;;;;;6.81;100.00;100486.38;4940967;29;20521;-66
2023/11/12 07:28:38;;;;;;;14.75;9.70;;;;;;;6.81;100.00;100489.09;4935370;29;20048;-66
2023/11/12 07:31:26;;;;;;;12.10;8.90;;;;;;;6.80;100.00;100496.38;4941834;29;20044;-66
2023/11/12 07:34:14;;;;;;;13.35;9.35;;;;;;;6.76;100.00;100503.38;4945387;29;20617;-66
2023/11/12 07:37:03;;;;;;;13.23;9.80;;;;;;;6.71;100.00;100506.03;4909279;29;20044;-66
2023/11/12 07:39:51;;;;;;;12.90;9.25;;;;;;;6.69;100.00;100502.75;4936074;29;20134;-68
2023/11/12 07:42:40;;;;;;;12.73;9.13;;;;;;;6.67;100.00;100504.88;4936239;29;20146;-67
2023/11/12 07:45:28;;;;;;;13.82;9.25;;;;;;;6.66;100.00;100514.06;4934625;29;20043;-68
2023/11/12 07:48:27;;;;;;;13.43;9.20;;;;;;;6.67;100.00;100514.88;4935736;29;20048;-67
2023/11/12 07:51:15;;;;;;;12.77;8.77;;;;;;;6.68;100.00;100511.91;4935314;29;20525;-66
2023/11/12 07:54:04;;;;;;;12.70;9.25;;;;;;;6.64;100.00;100504.53;4934171;29;20059;-65
2023/11/12 07:56:52;;;;;;;11.52;9.10;;;;;;;6.58;100.00;100519.91;4914074;29;20476;-66
2023/11/12 07:59:40;;;;;;;12.63;9.13;;;;;;;6.56;100.00;100522.03;4936208;29;20056;-66
2023/11/12 08:02:28;;;;;;;10.80;8.40;;;;;;;6.49;100.00;100519.50;4935840;29;20048;-65
2023/11/12 08:05:16;;;;;;;10.50;8.00;;;;;;;6.42;100.00;100523.44;4937184;29;20099;-65
2023/11/12 08:08:04;;;;;;;11.25;8.35;;;;;;;6.36;100.00;100523.38;4935171;29;20055;-65
2023/11/12 08:10:54;;;;;;;11.27;8.27;;;;;;;6.37;100.00;100524.19;4937740;29;20047;-67
2023/11/12 08:13:42;;;;;;;11.57;7.82;;;;;;;6.36;100.00;100526.06;4936060;29;20074;-66
2023/11/12 08:16:30;;;;;;;11.23;8.75;;;;;;;6.38;100.00;100526.66;4911458;29;20040;-67
2023/11/12 08:19:18;;;;;;;12.23;9.27;;;;;;;6.40;100.00;100531.81;4939457;29;20044;-66
2023/11/12 08:22:06;;;;;;;12.30;9.15;;;;;;;6.39;100.00;100536.41;4947629;29;20052;-64
2023/11/12 08:24:54;;;;;;;12.70;9.27;;;;;;;6.35;100.00;100545.25;4931067;29;20149;-66
2023/11/12 08:27:42;;;;;;;11.52;8.38;;;;;;;6.39;100.00;100551.81;4934632;29;20052;-66
2023/11/12 08:30:30;;;;;;;12.85;7.65;;;;;;;6.53;100.00;100555.03;4946854;29;20334;-66
2023/11/12 08:33:18;;;;;;;15.10;7.63;;;;;;;6.63;100.00;100557.88;4947817;29;20070;-64
2023/11/12 08:36:07;;;;;;;12.73;7.53;;;;;;;6.60;100.00;100552.97;4942550;29;20150;-66
2023/11/12 08:38:56;;;;;;;10.27;7.05;;;;;;;6.61;100.00;100560.00;4938345;29;20202;-68
2023/11/12 08:41:47;;;;;;;10.00;7.20;;;;;;;6.65;100.00;100555.75;4964974;29;20043;-67
2023/11/12 08:44:35;;;;;;;10.35;7.05;;;;;;;6.68;100.00;100555.22;4951872;29;20054;-64
2023/11/12 08:47:23;;;;;;;9.57;6.65;;;;;;;6.72;100.00;100556.38;4947501;29;20052;-65
2023/11/12 08:50:11;;;;;;;9.68;6.93;;;;;;;6.73;100.00;100558.00;4955820;29;20107;-66
2023/11/12 08:53:01;;;;;;;9.32;6.60;;;;;;;6.69;100.00;100556.88;4940900;29;20413;-65
2023/11/12 08:55:49;;;;;;;11.75;8.00;;;;;;;6.69;100.00;100548.75;4940378;28;20075;-66
2023/11/12 08:58:37;;;;;;;16.48;7.63;;;;;;;6.72;100.00;100556.38;4938545;29;20039;-65
2023/11/12 09:01:26;;;;;;;9.52;6.57;;;;;;;6.75;100.00;100555.88;4926240;29;20079;-66
2023/11/12 09:04:14;;;;;;;9.30;5.68;;;;;;;6.74;100.00;100554.25;4939070;29;20051;-65
2023/11/12 09:07:02;;;;;;;10.82;6.55;;;;;;;6.77;100.00;100553.75;4939549;29;20520;-65
2023/11/12 09:09:50;;;;;;;10.60;6.80;;;;;;;6.78;100.00;100552.69;4938361;29;20123;-65
2023/11/12 09:12:38;;;;;;;10.07;6.43;;;;;;;6.79;100.00;100556.22;4938151;29;20046;-66
2023/11/12 09:15:26;;;;;;;10.70;6.40;;;;;;;6.76;100.00;100546.69;4950641;29;20043;-65
2023/11/12 09:18:14;;;;;;;10.23;6.30;;;;;;;6.77;100.00;100556.44;4925067;29;20173;-66
2023/11/12 09:21:03;;;;;;;10.80;6.05;;;;;;;6.78;100.00;100550.00;4925579;29;20053;-66
2023/11/12 09:23:51;;;;;;;11.23;5.53;;;;;;;6.80;100.00;100561.34;4926605;28;20063;-65
2023/11/12 09:26:39;;;;;;;12.48;6.55;;;;;;;6.86;100.00;100561.47;4938055;29;20146;-65
2023/11/12 09:29:28;;;;;;;12.18;7.13;;;;;;;6.86;100.00;100564.97;4925088;29;20616;-66
2023/11/12 09:32:16;;;;;;;10.02;6.63;;;;;;;6.88;100.00;100562.00;4926349;28;20492;-65
2023/11/12 09:35:06;;;;;;;10.75;6.90;;;;;;;6.92;100.00;100563.16;4911438;29;20051;-66
2023/11/12 09:37:54;;;;;;;11.35;6.65;;;;;;;6.92;100.00;100555.03;4938609;29;20497;-66
2023/11/12 09:40:43;;;;;;;10.00;6.10;;;;;;;6.96;100.00;100558.88;4937751;29;20519;-65
2023/11/12 09:43:30;;;;;;;13.15;7.30;;;;;;;6.98;100.00;100559.47;4938183;29;20054;-65
2023/11/12 09:46:20;;;;;;;10.60;6.60;;;;;;;6.98;100.00;100560.25;4949714;29;20106;-66
2023/11/12 09:49:10;;;;;;;9.38;6.18;;;;;;;6.98;100.00;100556.75;4920710;29;20040;-66
2023/11/12 09:51:59;;;;;;;9.40;6.07;;;;;;;7.01;100.00;100564.38;4930867;29;20172;-67
2023/11/12 09:54:48;;;;;;;9.95;6.50;;;;;;;7.00;100.00;100563.56;4930290;29;20056;-66
2023/11/12 09:57:36;;;;;;;8.85;5.38;;;;;;;7.00;100.00;100557.31;4928063;28;20079;-65
2023/11/12 10:00:25;;;;;;;11.52;6.10;;;;;;;7.04;100.00;100566.56;4938358;29;20067;-66
2023/11/12 10:03:13;;;;;;;9.52;5.38;;;;;;;7.04;100.00;100563.84;4937416;29;20048;-65
2023/11/12 10:06:04;;;;;;;8.82;5.40;;;;;;;7.00;100.00;100566.25;4937891;29;20059;-66
2023/11/12 10:08:54;;;;;;;10.93;5.78;;;;;;;6.99;100.00;100569.22;4937853;29;20047;-66
2023/11/12 10:11:41;;;;;;;10.18;5.85;;;;;;;7.01;100.00;100557.06;4938963;29;20056;-66
2023/11/12 10:14:30;;;;;;;10.38;5.40;;;;;;;7.04;100.00;100553.03;4950583;29;20048;-66
2023/11/12 10:17:18;;;;;;;9.52;5.15;;;;;;;7.06;100.00;100555.47;4937171;29;20190;-66
2023/11/12 10:20:09;;;;;;;8.88;5.07;;;;;;;7.09;100.00;100565.81;4937843;29;20050;-66
2023/11/12 10:22:57;;;;;;;8.80;4.93;;;;;;;7.09;100.00;100563.91;4938285;29;20051;-65
2023/11/12 10:25:49;;;;;;;8.15;4.45;;;;;;;7.10;100.00;100564.75;4938556;29;20047;-65
2023/11/12 10:28:37;;;;;;;9.45;4.65;;;;;;;7.10;100.00;100565.56;4943844;29;20043;-66
2023/11/12 10:31:38;;;;;;;9.55;4.75;;;;;;;7.12;100.00;100571.56;4937575;29;20044;-67
2023/11/12 10:34:28;;;;;;;9.90;5.22;;;;;;;7.14;100.00;100574.00;4928943;29;20059;-66
2023/11/12 10:37:19;;;;;;;9.30;5.90;;;;;;;7.15;100.00;100571.06;4953901;29;20120;-65
2023/11/12 10:40:08;;;;;;;11.07;6.32;;;;;;;7.17;100.00;100574.34;4940806;29;20055;-66
2023/11/12 10:43:06;;;;;;;10.35;6.40;;;;;;;7.20;100.00;100571.13;4938291;29;20056;-66
2023/11/12 10:46:00;;;;;;;11.55;6.50;;;;;;;7.24;100.00;100568.72;4938123;29;20070;-66
2023/11/12 10:48:49;;;;;;;11.85;6.05;;;;;;;7.27;100.00;100568.22;4949369;29;20479;-66
2023/11/12 10:51:39;;;;;;;11.32;5.97;;;;;;;7.29;100.00;100567.94;4936152;29;20070;-66
2023/11/12 10:54:29;;;;;;;9.95;5.88;;;;;;;7.33;100.00;100575.31;4911086;29;20060;-66
2023/11/12 10:57:23;;;;;;;10.35;6.50;;;;;;;7.33;100.00;100572.63;4934772;29;20051;-65
2023/11/12 11:00:13;;;;;;;10.98;5.63;;;;;;;7.37;100.00;100578.38;4923389;29;20047;-66
2023/11/12 11:03:01;;;;;;;12.85;6.63;;;;;;;7.40;100.00;100575.94;4937571;29;20043;-66
2023/11/12 11:05:50;;;;;;;11.48;5.50;;;;;;;7.42;100.00;100570.28;4923640;29;20047;-66
2023/11/12 11:08:39;;;;;;;8.88;5.18;;;;;;;7.48;100.00;100574.72;4910478;29;20413;-66
2023/11/12 11:11:27;;;;;;;13.38;5.70;;;;;;;7.49;100.00;100570.91;4936503;29;20417;-65
2023/11/12 11:14:27;;;;;;;10.77;5.25;;;;;;;7.47;100.00;100578.47;4910310;29;20063;-66
2023/11/12 11:17:36;;;;;;;10.02;5.72;;;;;;;7.47;100.00;100568.44;4923393;29;20040;-67
2023/11/12 11:20:25;;;;;;;9.70;5.57;;;;;;;7.50;100.00;100566.31;4922897;29;20063;-65
2023/11/12 11:23:49;;;;;;;10.35;5.35;;;;;;;7.55;100.00;100566.38;4948760;29;20504;-66
2023/11/12 11:26:42;;;;;;;10.52;5.22;;;;;;;7.59;100.00;100571.03;4936547;29;20134;-67
2023/11/12 11:29:31;;;;;;;12.25;5.70;;;;;;;7.61;100.00;100573.50;4936012;29;20040;-66
2023/11/12 11:32:21;;;;;;;12.73;6.32;;;;;;;7.61;100.00;100574.31;4934992;29;20122;-66
2023/11/12 11:35:18;;;;;;;9.23;5.30;;;;;;;7.61;100.00;100573.50;4935460;29;20048;-64
2023/11/12 11:38:09;;;;;;;12.60;5.82;;;;;;;7.62;100.00;100581.34;4936439;29;20209;-64
2023/11/12 11:40:58;;;;;;;9.38;5.32;;;;;;;7.66;100.00;100593.34;4922212;29;20039;-66
2023/11/12 11:43:46;;;;;;;13.93;6.78;;;;;;;7.65;100.00;100594.44;4921151;29;20079;-66
2023/11/12 11:46:34;;;;;;;10.25;6.88;;;;;;;7.60;100.00;100594.38;4936279;29;20044;-66
2023/11/12 11:49:51;;;;;;;14.03;7.87;;;;;;;7.57;100.00;100605.69;4873422;28;10001332;-65
2023/11/12 11:52:39;;;;;;;15.80;7.78;;;;;;;7.53;100.00;100601.03;4930649;29;20237;-65
2023/11/12 11:55:29;;;;;;;14.85;7.22;;;;;;;7.56;100.00;100608.69;4929978;29;20052;-67
2023/11/12 11:58:19;;;;;;;10.40;6.72;;;;;;;7.58;100.00;100607.34;4917641;29;20564;-67
2023/11/12 12:01:07;;;;;;;12.38;6.70;;;;;;;7.64;100.00;100606.31;4933253;28;20062;-66
2023/11/12 12:04:05;;;;;;;13.95;6.90;;;;;;;7.66;100.00;100598.75;4915525;29;20129;-67
2023/11/12 12:06:55;;;;;;;16.65;7.80;;;;;;;7.69;100.00;100592.81;4913386;29;20052;-67
2023/11/12 12:09:45;;;;;;;16.52;7.60;;;;;;;7.69;100.00;100592.81;4942464;28;20059;-66
2023/11/12 12:12:36;;;;;;;15.07;8.00;;;;;;;7.69;100.00;100595.53;4918233;29;20052;-66
2023/11/12 12:15:26;;;;;;;14.52;8.00;;;;;;;7.69;100.00;100586.59;4930194;29;20361;-66
2023/11/12 12:18:22;;;;;;;11.93;6.57;;;;;;;7.66;100.00;100587.91;4938024;29;20043;-66
2023/11/12 12:21:11;;;;;;;13.90;6.90;;;;;;;7.67;100.00;100589.56;4933264;29;20047;-66
2023/11/12 12:24:00;;;;;;;14.63;6.90;;;;;;;7.68;100.00;100585.78;4938316;29;20078;-66
2023/11/12 12:26:48;;;;;;;13.10;6.82;;;;;;;7.70;100.00;100582.81;4924084;29;20424;-66
2023/11/12 12:29:38;;;;;;;13.00;7.05;;;;;;;7.70;100.00;100580.09;4925379;29;20142;-65
2023/11/12 12:32:27;;;;;;;13.27;7.07;;;;;;;7.68;100.00;100568.69;4924568;29;20039;-66
2023/11/12 12:35:23;;;;;;;13.95;7.07;;;;;;;7.68;100.00;100574.94;4912217;29;20059;-66
2023/11/12 12:38:12;;;;;;;13.38;7.05;;;;;;;7.69;100.00;100571.13;4924150;29;20051;-64
2023/11/12 12:41:01;;;;;;;14.48;7.18;;;;;;;7.73;100.00;100567.94;4925500;29;20052;-65
2023/11/12 12:43:54;;;;;;;12.88;7.93;;;;;;;7.74;100.00;100566.84;4940423;29;20055;-64
2023/11/12 12:46:46;;;;;;;15.55;7.30;;;;;;;7.73;100.00;100573.34;4927780;29;20052;-66
2023/11/12 12:49:35;;;;;;;14.15;7.93;;;;;;;7.74;100.00;100566.84;4939784;29;20056;-63
2023/11/12 12:52:23;;;;;;;15.85;7.60;;;;;;;7.72;100.00;100568.97;4939726;29;20099;-64
2023/11/12 12:55:21;;;;;;;15.18;7.72;;;;;;;7.73;100.00;100565.22;4937796;29;20060;-63